EGGW METAR and TAF | Updated Today

EGGW METAR

London Luton Airport

Observation time: 9 min. ago

EGGW 252020Z AUTO 25011KT 9999 NCD 14/10 Q1016

Need help? Read our tutorial on how to read METARs or read the parsed version below.

London Luton Airport (EGGW) METAR

  • Weather conditions on Wed, 25 May 2022 20:20:00 +0000 (9 min. ago):
  • Present conditions: Dry
  • Clouds: Nil cloud detected
  • Visibility: Greater than 10 km
  • Wind: 250 degrees at 11 knots
  • Temperature: 14 celsius
  • Dew point: 10 celsius
  • Pressure: 1016 millibars
  • Remarks: None


Useful to know...

EGGW TAF

London Luton Airport

TAF EGGW 251659Z 2518/2618 24013KT 9999 SCT026 TEMPO 2612/2618 25018G28KT
Observation time: 3:30 hr. ago
Need help? Read our tutorial on how to read TAFs or read the parsed version below.

Parsed version of TAF for London Luton Airport (EGGW)

  • From 25 May at 18:00 UTC, to day 26 of the month at 18:00 UTC
  • Clouds: Scattered at 792 meters
  • Visibility: Greater than 10 km
  • Wind: 240 degrees at 13
  • Expected to arise temporarily, from 26 May at 12:00 UTC, to day 26 of the month at 18:00 UTC
  • Wind: 250 degrees at 18